Time;durP1;ratioP1;P1;durP2;ratioP2;P2;SDS_P1;SDS_P2;PMS_P1;PMS_P2;Temp;Humidity;BMP_temperature;BMP_pressure;BME280_temperature;BME280_humidity;BME280_pressure;Samples;Min_cycle;Max_cycle;Signal;HPM_P1;HPM_P2
2022/10/24 04:22:52;;;;;;;4.15;2.10;;;;;;;12.52;100.00;99771.13;5163317;27;20363;-63
2022/10/24 04:25:18;;;;;;;4.25;1.48;;;;;;;12.54;100.00;99774.41;5130081;27;20112;-64
2022/10/24 04:27:44;;;;;;;7.03;1.65;;;;;;;12.57;100.00;99766.00;5130114;27;20046;-63
2022/10/24 04:30:11;;;;;;;2.83;1.77;;;;;;;12.62;100.00;99771.56;5130160;27;20452;-63
2022/10/24 04:32:37;;;;;;;2.25;1.67;;;;;;;12.66;100.00;99761.34;5130002;27;20110;-64
2022/10/24 04:35:04;;;;;;;4.85;1.85;;;;;;;12.68;100.00;99746.75;5130423;27;20055;-66
2022/10/24 04:37:30;;;;;;;3.45;1.75;;;;;;;12.73;100.00;99738.13;5129887;27;20039;-65
2022/10/24 04:39:55;;;;;;;5.00;2.35;;;;;;;12.75;100.00;99728.06;5129778;27;20403;-66
2022/10/24 04:42:22;;;;;;;5.80;1.70;;;;;;;12.74;100.00;99727.25;5129570;27;20488;-65
2022/10/24 04:44:47;;;;;;;4.68;2.20;;;;;;;12.81;100.00;99734.47;5129718;27;20039;-64
2022/10/24 04:47:13;;;;;;;3.28;2.05;;;;;;;12.84;100.00;99720.69;5129658;27;20031;-65
2022/10/24 04:49:38;;;;;;;6.07;2.13;;;;;;;12.82;100.00;99731.56;5128490;28;20425;-66
2022/10/24 04:52:04;;;;;;;2.97;1.77;;;;;;;12.85;100.00;99768.63;5129277;27;20031;-63
2022/10/24 04:54:29;;;;;;;2.20;1.63;;;;;;;12.88;100.00;99826.19;5129615;27;20039;-64
2022/10/24 04:56:54;;;;;;;2.75;1.42;;;;;;;12.90;100.00;99813.44;5129413;27;20047;-64
2022/10/24 04:59:20;;;;;;;5.20;2.25;;;;;;;13.06;100.00;99805.09;5129585;27;20090;-64
2022/10/24 05:01:45;;;;;;;9.23;1.77;;;;;;;13.08;100.00;99789.66;5129039;27;20080;-65
2022/10/24 05:04:11;;;;;;;3.88;1.65;;;;;;;13.11;100.00;99797.31;5129279;27;20441;-64
2022/10/24 05:06:37;;;;;;;2.15;1.02;;;;;;;13.09;100.00;99811.88;5129129;27;20487;-65
2022/10/24 05:09:03;;;;;;;2.58;1.52;;;;;;;13.10;100.00;99798.31;5129250;27;20075;-66
2022/10/24 05:11:29;;;;;;;5.72;1.92;;;;;;;13.09;100.00;99793.16;5128667;27;20024;-65
2022/10/24 05:13:54;;;;;;;3.50;1.98;;;;;;;13.12;100.00;99785.56;5129054;27;20395;-65
2022/10/24 05:16:19;;;;;;;5.40;1.90;;;;;;;13.13;100.00;99781.88;5127780;28;20042;-63
2022/10/24 05:18:45;;;;;;;3.42;2.13;;;;;;;13.17;100.00;99791.16;5128959;27;20050;-65
2022/10/24 05:21:10;;;;;;;4.72;2.30;;;;;;;13.19;100.00;99793.63;5128721;27;20035;-65
2022/10/24 05:23:36;;;;;;;3.47;1.67;;;;;;;13.20;100.00;99785.41;5129112;27;20127;-66
2022/10/24 05:26:02;;;;;;;5.00;1.92;;;;;;;13.23;100.00;99789.53;5128739;27;20039;-65
2022/10/24 05:28:27;;;;;;;4.35;2.33;;;;;;;13.24;100.00;99793.88;5128901;27;20084;-66
2022/10/24 05:30:52;;;;;;;3.80;1.80;;;;;;;13.24;100.00;99794.69;5128455;27;20107;-64
2022/10/24 05:33:18;;;;;;;2.85;1.80;;;;;;;13.22;100.00;99796.72;5120504;27;20051;-65
2022/10/24 05:35:43;;;;;;;3.83;1.88;;;;;;;13.24;100.00;99802.72;5114941;28;20050;-65
2022/10/24 05:38:09;;;;;;;5.03;1.70;;;;;;;13.21;100.00;99787.06;5114953;28;20050;-65
2022/10/24 05:40:34;;;;;;;6.35;1.90;;;;;;;13.25;100.00;99792.84;5114659;28;20070;-64
2022/10/24 05:43:00;;;;;;;3.78;1.80;;;;;;;13.26;100.00;99789.97;5115021;27;20067;-65
2022/10/24 05:45:25;;;;;;;3.75;1.77;;;;;;;13.27;100.00;99782.75;5115041;28;20036;-64
2022/10/24 05:47:50;;;;;;;4.53;1.90;;;;;;;13.29;100.00;99780.69;5114740;28;20168;-63
2022/10/24 05:50:16;;;;;;;5.18;1.70;;;;;;;13.32;100.00;99782.16;5114380;28;20043;-64
2022/10/24 05:52:41;;;;;;;6.13;1.95;;;;;;;13.33;100.00;99781.13;5114671;28;20039;-65
2022/10/24 05:55:08;;;;;;;3.47;1.77;;;;;;;13.33;100.00;99789.16;5114621;28;20042;-64
2022/10/24 05:57:35;;;;;;;4.07;1.70;;;;;;;13.34;100.00;99782.78;5114625;28;20122;-65
2022/10/24 06:00:01;;;;;;;3.83;1.80;;;;;;;13.39;100.00;99765.09;5114435;28;20031;-64
2022/10/24 06:02:37;;;;;;;2.70;1.30;;;;;;;13.40;100.00;99772.09;5114494;28;20039;-63
2022/10/24 06:05:03;;;;;;;6.32;2.42;;;;;;;13.42;100.00;99790.59;5114572;28;20043;-65
2022/10/24 06:07:29;;;;;;;3.75;1.70;;;;;;;13.40;100.00;99787.31;5113382;28;20036;-64
2022/10/24 06:09:54;;;;;;;6.55;1.95;;;;;;;13.46;100.00;99799.88;5114280;28;20058;-64
2022/10/24 06:12:19;;;;;;;5.88;1.88;;;;;;;13.44;100.00;99808.13;5114087;27;20484;-65
2022/10/24 06:14:45;;;;;;;5.70;2.25;;;;;;;13.45;100.00;99807.09;5114357;28;20492;-63
2022/10/24 06:17:10;;;;;;;2.70;1.90;;;;;;;13.44;100.00;99809.97;5114233;28;20059;-65
2022/10/24 06:19:37;;;;;;;7.07;2.33;;;;;;;13.45;100.00;99807.09;5114106;28;20036;-65
2022/10/24 06:22:04;;;;;;;2.95;1.83;;;;;;;13.45;100.00;99807.09;5113774;27;20028;-53
2022/10/24 06:24:30;;;;;;;2.05;1.52;;;;;;;13.52;100.00;99809.78;5113884;28;20023;-54
2022/10/24 06:26:55;;;;;;;5.63;2.63;;;;;;;13.52;100.00;99815.13;5113897;28;20544;-55
2022/10/24 06:29:21;;;;;;;3.17;1.85;;;;;;;13.55;100.00;99815.53;5113979;28;20088;-55
2022/10/24 06:31:46;;;;;;;3.85;1.80;;;;;;;13.56;100.00;99833.25;5113718;28;20519;-56
2022/10/24 06:34:11;;;;;;;4.50;1.92;;;;;;;13.60;100.00;99841.69;5113814;28;20070;-54
2022/10/24 06:36:37;;;;;;;3.83;1.88;;;;;;;13.84;100.00;99848.34;5113749;28;20075;-54
2022/10/24 06:39:03;;;;;;;2.72;1.15;;;;;;;14.43;100.00;99844.84;5113736;28;20058;-56
2022/10/24 06:41:28;;;;;;;2.70;1.80;;;;;;;14.75;100.00;99842.34;5113385;28;20490;-57
2022/10/24 06:43:55;;;;;;;1.65;1.30;;;;;;;14.91;100.00;99850.75;5113250;28;20039;-58
2022/10/24 06:46:22;;;;;;;4.03;1.83;;;;;;;14.95;100.00;99856.53;5112989;28;20043;-62
2022/10/24 06:48:54;;;;;;;3.97;1.33;;;;;;;15.01;100.00;99854.84;5113559;28;20080;-59
2022/10/24 06:51:20;;;;;;;1.65;1.13;;;;;;;15.00;100.00;99861.25;5113126;28;20071;-60
2022/10/24 06:53:45;;;;;;;2.15;1.00;;;;;;;15.09;100.00;99851.94;5113442;28;20178;-61
2022/10/24 06:56:11;;;;;;;4.22;1.40;;;;;;;15.19;100.00;99852.28;5113406;28;20044;-61
2022/10/24 06:58:37;;;;;;;2.08;1.33;;;;;;;15.29;100.00;99857.22;5113293;28;20032;-60
2022/10/24 07:01:14;;;;;;;2.53;1.23;;;;;;;15.43;100.00;99859.63;5112971;28;20023;-59
2022/10/24 07:03:39;;;;;;;2.25;1.48;;;;;;;15.40;100.00;99854.69;5113324;28;20035;-58
2022/10/24 07:06:12;;;;;;;3.85;1.10;;;;;;;15.44;100.00;99845.16;5113193;28;20609;-61
2022/10/24 07:08:38;;;;;;;2.47;1.38;;;;;;;15.46;100.00;99843.09;5112027;28;20040;-60
2022/10/24 07:11:03;;;;;;;2.83;1.20;;;;;;;15.42;100.00;99835.69;5112772;28;20035;-60
2022/10/24 07:13:29;;;;;;;2.72;1.10;;;;;;;15.38;100.00;99843.31;5113100;28;20035;-62
2022/10/24 07:15:54;;;;;;;4.18;1.38;;;;;;;15.34;100.00;99836.75;5113076;28;20046;-62
2022/10/24 07:18:21;;;;;;;1.58;1.10;;;;;;;15.28;100.00;99842.97;5112964;28;20055;-61
2022/10/24 07:20:46;;;;;;;4.05;1.50;;;;;;;15.24;100.00;99857.03;5112496;28;20455;-59
2022/10/24 07:23:12;;;;;;;3.25;1.45;;;;;;;15.17;100.00;99876.66;5111625;28;20131;-61
2022/10/24 07:25:38;;;;;;;6.00;1.30;;;;;;;15.10;100.00;99865.13;5112865;28;20051;-59
2022/10/24 07:28:05;;;;;;;3.10;1.30;;;;;;;15.07;100.00;99859.38;5112726;28;20044;-60
2022/10/24 07:30:31;;;;;;;1.10;0.80;;;;;;;15.07;100.00;99862.06;5112448;28;20044;-58
2022/10/24 07:32:56;;;;;;;3.25;1.25;;;;;;;15.06;100.00;99868.44;5112718;28;20046;-59
2022/10/24 07:35:22;;;;;;;2.53;1.30;;;;;;;15.03;100.00;99872.38;5112660;28;20507;-62
2022/10/24 07:37:48;;;;;;;1.50;1.15;;;;;;;14.97;100.00;99859.00;5112671;28;20042;-61
2022/10/24 07:40:14;;;;;;;4.00;1.00;;;;;;;15.04;100.00;99876.69;5112148;27;20064;-61
2022/10/24 07:42:39;;;;;;;1.80;1.00;;;;;;;15.05;100.00;99867.63;5112649;28;20393;-60
2022/10/24 07:45:06;;;;;;;2.13;0.73;;;;;;;15.10;100.00;99875.84;5112581;28;20047;-59
2022/10/24 07:47:32;;;;;;;2.10;0.90;;;;;;;15.10;100.00;99870.50;5112373;28;20044;-59
2022/10/24 07:49:57;;;;;;;2.20;1.15;;;;;;;15.10;100.00;99875.03;5112259;28;20039;-60
2022/10/24 07:52:23;;;;;;;2.50;1.00;;;;;;;15.08;100.00;99861.84;5111983;28;20099;-61
2022/10/24 07:54:48;;;;;;;6.80;1.20;;;;;;;15.06;100.00;99861.25;5112327;28;20397;-59
2022/10/24 07:57:13;;;;;;;2.10;1.50;;;;;;;15.05;100.00;99858.75;5112133;28;20442;-62
2022/10/24 07:59:39;;;;;;;1.45;1.10;;;;;;;15.03;100.00;99868.88;5112433;28;20047;-59
2022/10/24 08:02:04;;;;;;;1.90;1.00;;;;;;;15.04;100.00;99865.97;5111906;28;20042;-61
2022/10/24 08:04:30;;;;;;;2.35;1.13;;;;;;;15.07;100.00;99870.09;5112245;28;20032;-61
2022/10/24 08:06:56;;;;;;;4.05;1.05;;;;;;;15.11;100.00;99871.31;5112192;28;20439;-60
2022/10/24 08:09:21;;;;;;;2.30;1.25;;;;;;;15.19;100.00;99873.75;5112055;28;20488;-61
2022/10/24 08:11:46;;;;;;;2.15;1.00;;;;;;;15.24;100.00;99871.25;5111716;28;20039;-61
2022/10/24 08:14:12;;;;;;;3.95;1.25;;;;;;;15.32;100.00;99872.88;5112130;28;20447;-61
2022/10/24 08:16:40;;;;;;;3.92;1.05;;;;;;;15.39;100.00;99869.16;5111866;28;20039;-58
2022/10/24 08:19:06;;;;;;;4.22;1.27;;;;;;;15.46;100.00;99858.38;5111875;28;20077;-60
2022/10/24 08:21:33;;;;;;;5.18;1.30;;;;;;;15.51;100.00;99857.72;5111644;28;20066;-58
2022/10/24 08:23:59;;;;;;;1.42;1.20;;;;;;;15.51;100.00;99857.72;5111996;28;20036;-62
2022/10/24 08:26:25;;;;;;;2.25;1.00;;;;;;;15.51;100.00;99861.22;5111779;28;20028;-60
2022/10/24 08:28:52;;;;;;;1.75;1.10;;;;;;;15.57;100.00;99864.91;5111901;28;20484;-59
2022/10/24 08:31:19;;;;;;;2.35;1.25;;;;;;;15.59;100.00;99862.88;5111477;28;20032;-60
2022/10/24 08:33:46;;;;;;;2.15;1.20;;;;;;;15.62;100.00;99862.44;5111861;28;20122;-58
2022/10/24 08:36:27;;;;;;;2.20;1.40;;;;;;;15.63;100.00;99853.34;5111848;28;20094;-60
2022/10/24 08:38:52;;;;;;;1.73;1.10;;;;;;;15.63;100.00;99870.28;5111894;28;20480;-59
2022/10/24 08:41:26;;;;;;;1.73;1.27;;;;;;;15.63;100.00;99867.59;5111561;28;20042;-58
2022/10/24 08:43:52;;;;;;;3.42;1.02;;;;;;;15.60;100.00;99856.44;5111875;28;20039;-59
2022/10/24 08:46:37;;;;;;;2.65;1.13;;;;;;;15.62;100.00;99851.72;5111969;28;20037;-60
2022/10/24 08:49:29;;;;;;;2.63;1.30;;;;;;;15.64;100.00;99850.44;5111854;28;20035;-61
2022/10/24 08:52:15;;;;;;;2.42;1.23;;;;;;;15.66;100.00;99858.31;5111435;28;20042;-61
2022/10/24 08:54:43;;;;;;;3.60;1.88;;;;;;;15.69;100.00;99868.59;5111720;28;20043;-61
2022/10/24 08:57:18;;;;;;;2.67;1.20;;;;;;;15.72;100.00;99869.00;5111760;28;20047;-60
2022/10/24 08:59:44;;;;;;;1.35;0.93;;;;;;;15.76;100.00;99872.06;5112069;28;20031;-62
2022/10/24 09:02:09;;;;;;;3.95;1.60;;;;;;;15.80;100.00;99870.59;5111319;28;20084;-60
2022/10/24 09:04:47;;;;;;;1.38;0.95;;;;;;;15.83;100.00;99863.97;5111679;28;20164;-59
2022/10/24 09:07:18;;;;;;;2.08;1.30;;;;;;;15.88;100.00;99875.72;5111625;28;20457;-62
2022/10/24 09:09:47;;;;;;;2.30;1.10;;;;;;;15.90;100.00;99875.50;5115576;28;20404;-62
2022/10/24 09:12:18;;;;;;;2.35;1.30;;;;;;;15.93;100.00;99870.53;5115047;28;20047;-61
2022/10/24 09:14:46;;;;;;;2.97;1.20;;;;;;;16.00;100.00;99876.66;5115693;28;20395;-61
2022/10/24 09:17:21;;;;;;;2.78;1.23;;;;;;;16.07;100.00;99886.53;5115283;28;20044;-62
2022/10/24 09:19:54;;;;;;;2.20;1.30;;;;;;;16.07;100.00;99875.81;5115548;27;20046;-61
2022/10/24 09:22:21;;;;;;;2.08;1.13;;;;;;;16.16;100.00;99878.00;5114670;28;20024;-60
2022/10/24 09:24:55;;;;;;;2.63;1.40;;;;;;;16.32;100.00;99873.94;5115182;28;20503;-59
2022/10/24 09:27:24;;;;;;;2.35;1.33;;;;;;;16.42;100.00;99886.88;5115216;28;20044;-60
2022/10/24 09:29:51;;;;;;;1.05;0.88;;;;;;;16.52;100.00;99893.41;5115117;28;20038;-62
2022/10/24 09:32:25;;;;;;;2.20;1.20;;;;;;;16.58;100.00;99899.78;5114721;28;20059;-60
2022/10/24 09:34:51;;;;;;;3.70;1.13;;;;;;;16.61;100.00;99907.38;5115085;28;20063;-62
2022/10/24 09:37:50;;;;;;;2.88;1.20;;;;;;;16.69;100.00;99912.50;5115038;28;20092;-61
2022/10/24 09:40:45;;;;;;;3.10;1.60;;;;;;;16.75;100.00;99911.63;5114467;28;20035;-62
2022/10/24 09:43:17;;;;;;;2.50;1.00;;;;;;;16.81;100.00;99910.75;5113931;28;20109;-62
2022/10/24 09:45:47;;;;;;;3.50;1.58;;;;;;;16.85;100.00;99921.91;5114868;28;20071;-60
2022/10/24 09:48:23;;;;;;;1.85;1.20;;;;;;;16.91;100.00;99914.81;5114692;28;20036;-59
2022/10/24 09:50:51;;;;;;;1.50;1.10;;;;;;;16.92;100.00;99916.44;5114303;28;20126;-60
2022/10/24 09:53:27;;;;;;;;;;;;;;;16.98;100.00;99921.75;5115128;27;20032;-58
2022/10/24 09:56:13;;;;;;;1.80;1.15;;;;;;;16.99;100.00;99911.81;5114556;28;19976;-57
2022/10/24 09:58:39;;;;;;;3.28;1.52;;;;;;;17.08;100.00;99916.69;5112853;28;20043;-59
2022/10/24 10:01:13;;;;;;;3.60;1.50;;;;;;;17.14;100.00;99924.91;5114107;27;20492;-58
2022/10/24 10:03:39;;;;;;;1.92;1.30;;;;;;;17.20;100.00;99926.69;5114446;28;20039;-58
2022/10/24 10:06:17;;;;;;;1.77;1.13;;;;;;;17.26;100.00;99928.50;5114413;28;20271;-57
2022/10/24 10:08:53;;;;;;;2.10;1.20;;;;;;;17.24;100.00;99931.41;5114379;28;20058;-60
2022/10/24 10:11:29;;;;;;;4.07;1.42;;;;;;;17.24;100.00;99935.97;5113871;28;20100;-59
2022/10/24 10:13:58;;;;;;;4.82;1.25;;;;;;;17.24;100.00;99928.72;5114059;28;20042;-60
2022/10/24 10:16:35;;;;;;;1.25;0.93;;;;;;;17.26;100.00;99929.31;5114104;28;20537;-62
2022/10/24 10:19:04;;;;;;;5.73;1.13;;;;;;;17.24;100.00;99930.59;5114097;28;20043;-60
2022/10/24 10:21:56;;;;;;;3.30;1.02;;;;;;;17.25;100.00;99929.53;5113654;28;20051;-59
2022/10/24 10:24:44;;;;;;;4.15;1.17;;;;;;;17.29;100.00;99928.06;5114317;28;20353;-57
2022/10/24 10:27:34;;;;;;;4.55;1.00;;;;;;;17.33;100.00;99929.25;5113943;28;20114;-60
2022/10/24 10:30:13;;;;;;;1.30;1.13;;;;;;;17.38;100.00;99924.00;5113726;28;20396;-62
2022/10/24 10:32:59;;;;;;;2.20;0.93;;;;;;;17.40;100.00;99924.59;5113823;27;20473;-62
2022/10/24 10:35:38;;;;;;;1.00;0.88;;;;;;;17.44;100.00;99920.41;5114071;28;20067;-62
2022/10/24 10:38:09;;;;;;;6.93;2.05;;;;;;;17.56;100.00;99918.63;5113826;28;20472;-62
2022/10/24 10:40:43;;;;;;;2.10;1.00;;;;;;;17.76;100.00;99936.41;5113345;28;20039;-63
2022/10/24 10:43:28;;;;;;;4.72;1.55;;;;;;;17.89;100.00;99934.38;5113645;28;20035;-63
2022/10/24 10:46:27;;;;;;;1.48;1.00;;;;;;;18.07;100.00;99948.84;5113713;28;20431;-62
2022/10/24 10:49:04;;;;;;;3.50;1.63;;;;;;;18.34;100.00;99949.28;5113692;28;20488;-64
2022/10/24 10:52:01;;;;;;;2.35;1.35;;;;;;;18.79;100.00;99951.47;5113280;27;20039;-63
2022/10/24 10:54:51;;;;;;;1.77;1.25;;;;;;;19.01;100.00;99959.81;5113509;28;20028;-64
2022/10/24 10:57:23;;;;;;;2.25;1.13;;;;;;;19.08;100.00;99958.63;5096636;28;20032;-64
2022/10/24 10:59:57;;;;;;;1.63;1.13;;;;;;;19.19;98.07;99965.91;5113312;28;20035;-64
2022/10/24 11:02:26;;;;;;;5.13;1.55;;;;;;;19.16;98.77;99977.16;5113227;28;20050;-64
2022/10/24 11:05:17;;;;;;;4.10;1.10;;;;;;;19.13;96.92;99971.41;5113394;27;20389;-62
2022/10/24 11:07:55;;;;;;;4.95;1.05;;;;;;;19.22;97.56;99970.00;5113290;28;20043;-64
2022/10/24 11:10:25;;;;;;;5.28;1.00;;;;;;;19.39;97.57;99964.69;5113011;28;20027;-64
2022/10/24 11:12:54;;;;;;;3.15;1.30;;;;;;;19.52;92.29;99959.03;5113075;28;20111;-64
2022/10/24 11:15:25;;;;;;;2.90;1.17;;;;;;;19.62;91.84;99958.44;5113131;28;20055;-63
2022/10/24 11:18:00;;;;;;;0.65;0.65;;;;;;;19.77;88.69;99959.56;5113245;28;20168;-64
2022/10/24 11:20:38;;;;;;;3.58;1.38;;;;;;;19.94;87.49;99956.09;5112564;28;20118;-64
2022/10/24 11:23:16;;;;;;;2.92;1.27;;;;;;;20.09;86.89;99964.50;5113075;28;20027;-62
2022/10/24 11:25:54;;;;;;;1.65;1.00;;;;;;;20.28;84.36;99957.00;5113020;28;20032;-62
2022/10/24 11:28:28;;;;;;;2.03;0.85;;;;;;;20.59;85.50;99947.53;5112847;28;20085;-62
2022/10/24 11:31:17;;;;;;;2.17;1.02;;;;;;;20.93;84.42;99964.59;5112036;28;20456;-62
2022/10/24 11:34:10;;;;;;;2.42;1.17;;;;;;;21.29;77.97;99965.13;5112784;28;20044;-63
2022/10/24 11:36:48;;;;;;;2.92;1.13;;;;;;;21.44;76.66;99957.19;5112847;27;20050;-64
2022/10/24 11:39:21;;;;;;;1.63;0.70;;;;;;;21.94;78.44;99959.69;5112508;28;20043;-63
2022/10/24 11:42:00;;;;;;;2.42;0.88;;;;;;;22.23;74.24;99962.16;5112379;28;20047;-64
2022/10/24 11:44:52;;;;;;;4.35;1.40;;;;;;;22.33;71.63;99956.84;5112722;28;20419;-63
2022/10/24 11:47:24;;;;;;;2.28;1.00;;;;;;;22.16;69.43;99950.69;5112584;28;20491;-64
2022/10/24 11:50:00;;;;;;;3.17;0.98;;;;;;;21.70;70.00;99942.06;5110955;28;20123;-64
2022/10/24 11:52:30;;;;;;;1.92;0.80;;;;;;;21.77;71.78;99937.25;5092195;28;20043;-64
2022/10/24 11:55:18;;;;;;;2.15;0.90;;;;;;;21.85;71.52;99938.72;5092276;28;20046;-64
2022/10/24 11:57:49;;;;;;;2.88;1.00;;;;;;;21.68;71.64;99923.34;5094551;28;20024;-64
2022/10/24 12:00:22;;;;;;;3.38;1.42;;;;;;;21.46;72.94;99929.84;5101042;28;20043;-63
2022/10/24 12:03:22;;;;;;;1.35;1.00;;;;;;;21.33;73.63;99920.22;5100784;28;20028;-64
2022/10/24 12:05:57;;;;;;;2.17;0.95;;;;;;;21.45;72.99;99922.78;5112356;28;20047;-64
2022/10/24 12:08:47;;;;;;;1.83;1.08;;;;;;;21.30;73.96;99929.66;5112236;28;20480;-63
2022/10/24 12:11:32;;;;;;;4.43;0.93;;;;;;;21.25;75.39;99928.72;5112028;28;20084;-62
2022/10/24 12:14:17;;;;;;;1.42;0.93;;;;;;;21.06;75.04;99917.38;5112250;28;20088;-63
2022/10/24 12:16:55;;;;;;;2.53;1.25;;;;;;;21.03;75.50;99907.06;5112178;28;20031;-63
2022/10/24 12:19:21;;;;;;;1.92;1.10;;;;;;;20.98;75.19;99901.56;5112286;28;20078;-63
2022/10/24 12:21:52;;;;;;;1.90;1.10;;;;;;;20.99;76.26;99900.47;5111631;28;20126;-63
2022/10/24 12:24:23;;;;;;;2.92;1.25;;;;;;;21.13;74.79;99902.59;5111837;28;20403;-62
2022/10/24 12:26:57;;;;;;;5.13;1.48;;;;;;;21.41;73.93;99889.97;5110761;28;20032;-64
2022/10/24 12:29:25;;;;;;;2.80;1.25;;;;;;;21.88;71.70;99898.34;5112124;28;20035;-62
2022/10/24 12:31:51;;;;;;;2.42;1.15;;;;;;;22.48;70.46;99901.88;5111679;28;20484;-64
2022/10/24 12:34:21;;;;;;;1.50;1.00;;;;;;;22.84;67.34;99881.22;5110878;28;20066;-64
2022/10/24 12:37:10;;;;;;;2.22;1.42;;;;;;;23.25;63.63;99886.91;5111942;28;20031;-63
2022/10/24 12:39:38;;;;;;;3.67;1.63;;;;;;;23.14;64.18;99891.44;5111968;28;20035;-64
2022/10/24 12:42:03;;;;;;;2.05;1.13;;;;;;;22.93;64.53;99892.44;5111701;28;20028;-63
2022/10/24 12:44:32;;;;;;;2.65;1.10;;;;;;;22.75;65.46;99888.22;5115793;28;20024;-62
2022/10/24 12:46:58;;;;;;;2.00;1.05;;;;;;;22.53;65.88;99890.25;5116101;28;20495;-63
2022/10/24 12:49:31;;;;;;;3.85;0.93;;;;;;;22.30;67.46;99877.84;5116153;28;20110;-63
2022/10/24 12:51:57;;;;;;;4.45;1.88;;;;;;;22.22;68.02;99890.00;5115775;27;20036;-64
2022/10/24 12:54:44;;;;;;;4.22;1.50;;;;;;;22.32;67.08;99887.38;5116028;28;20031;-64
2022/10/24 12:57:09;;;;;;;1.87;1.17;;;;;;;22.12;68.82;99889.94;5115712;28;20054;-63
2022/10/24 12:59:46;;;;;;;2.35;1.25;;;;;;;22.01;68.11;99899.00;5115857;28;20035;-64
2022/10/24 13:02:12;;;;;;;;;;;;;;;21.96;68.13;99897.06;5116002;28;20023;-64
2022/10/24 13:05:05;;;;;;;2.72;1.10;;;;;;;21.73;68.39;99898.19;5115705;28;19965;-64
2022/10/24 13:07:50;;;;;;;3.45;1.27;;;;;;;21.80;69.70;99903.41;5115702;28;20046;-62
2022/10/24 13:10:44;;;;;;;4.43;1.33;;;;;;;21.82;69.62;99906.69;5115408;28;20118;-64
2022/10/24 13:13:54;;;;;;;4.20;1.75;;;;;;;21.42;69.87;99899.72;5115612;28;20119;-62
2022/10/24 13:16:38;;;;;;;4.38;1.25;;;;;;;21.40;69.24;99894.56;5115512;28;20043;-63
2022/10/24 13:19:20;;;;;;;3.95;1.50;;;;;;;21.36;71.45;99888.00;5115421;28;20110;-63
2022/10/24 13:21:53;;;;;;;2.83;1.48;;;;;;;21.44;71.87;99888.63;5115114;27;20035;-63
2022/10/24 13:24:34;;;;;;;2.67;1.10;;;;;;;21.45;70.31;99891.09;5115517;28;20438;-64
2022/10/24 13:27:02;;;;;;;1.25;1.05;;;;;;;21.24;69.74;99884.56;5115231;28;20043;-63
2022/10/24 13:29:48;;;;;;;3.00;1.25;;;;;;;21.20;71.60;99890.78;5115295;28;20058;-63
2022/10/24 13:32:13;;;;;;;3.85;1.38;;;;;;;21.27;70.61;99885.97;5114832;28;20511;-64
2022/10/24 13:34:51;;;;;;;2.28;1.27;;;;;;;21.36;69.24;99888.00;5115135;28;20015;-64
2022/10/24 13:37:25;;;;;;;2.75;1.40;;;;;;;21.43;69.99;99885.09;5115103;28;20042;-64
2022/10/24 13:39:56;;;;;;;3.35;1.30;;;;;;;21.31;69.21;99885.22;5114958;28;20035;-64
2022/10/24 13:42:26;;;;;;;4.35;1.73;;;;;;;21.16;68.99;99887.72;5114984;28;20426;-63
2022/10/24 13:44:57;;;;;;;2.38;1.30;;;;;;;21.23;69.59;99887.53;5114974;28;20483;-63
2022/10/24 13:47:29;;;;;;;3.72;1.30;;;;;;;21.27;69.26;99903.03;5114971;28;20089;-62
2022/10/24 13:50:26;;;;;;;1.70;1.15;;;;;;;21.02;70.26;99905.41;5114118;28;20035;-62
2022/10/24 13:53:03;;;;;;;3.97;1.30;;;;;;;20.93;69.36;99910.44;5111590;28;20058;-64
2022/10/24 13:55:31;;;;;;;;;;;;;;;20.92;70.27;99913.38;5113447;28;20104;-64
2022/10/24 13:58:09;;;;;;;1.90;1.10;;;;;;;20.79;71.71;99906.44;5114780;27;20269;-63
2022/10/24 14:00:38;;;;;;;3.35;1.75;;;;;;;20.77;72.22;99905.88;5114384;28;20096;-62
2022/10/24 14:03:10;;;;;;;3.45;1.48;;;;;;;20.73;72.27;99899.31;5114949;28;20342;-63
2022/10/24 14:05:45;;;;;;;3.88;1.65;;;;;;;20.64;73.13;99909.72;5114479;28;20546;-63
2022/10/24 14:08:21;;;;;;;2.95;1.75;;;;;;;20.59;72.77;99910.47;5114600;28;20034;-63
2022/10/24 14:10:49;;;;;;;2.63;1.30;;;;;;;20.54;73.79;99920.41;5114226;28;20027;-63
2022/10/24 14:13:17;;;;;;;4.43;1.55;;;;;;;20.38;73.07;99913.06;5114457;28;20024;-63
2022/10/24 14:15:51;;;;;;;3.88;2.60;;;;;;;20.25;73.87;99912.31;5114297;28;20120;-62
2022/10/24 14:18:19;;;;;;;3.20;1.13;;;;;;;20.21;73.26;99913.91;5114488;28;20039;-63
2022/10/24 14:20:51;;;;;;;3.50;1.83;;;;;;;20.11;74.33;99913.72;5113796;28;20043;-63
2022/10/24 14:23:28;;;;;;;3.13;1.50;;;;;;;19.97;74.70;99909.66;5114212;28;20118;-63
2022/10/24 14:26:02;;;;;;;4.97;1.48;;;;;;;19.94;74.24;99908.25;5114228;28;20400;-64
2022/10/24 14:28:35;;;;;;;2.03;1.40;;;;;;;20.02;74.71;99910.59;5114337;27;20373;-64
2022/10/24 14:31:07;;;;;;;5.40;1.60;;;;;;;20.10;74.69;99905.84;5113849;28;20051;-63
2022/10/24 14:33:47;;;;;;;3.30;1.50;;;;;;;20.22;74.50;99904.72;5114077;28;20031;-63
2022/10/24 14:36:13;;;;;;;2.67;2.08;;;;;;;20.28;73.91;99895.63;5113876;28;20130;-63
2022/10/24 14:38:40;;;;;;;2.75;1.23;;;;;;;20.32;73.61;99906.75;5113932;28;20024;-63
2022/10/24 14:41:10;;;;;;;4.50;1.65;;;;;;;20.32;73.80;99910.28;5113582;28;20062;-63
2022/10/24 14:43:40;;;;;;;1.88;1.52;;;;;;;20.32;72.85;99915.69;5114011;28;20046;-63
2022/10/24 14:46:11;;;;;;;2.95;1.48;;;;;;;20.20;72.63;99906.00;5113870;28;20413;-63
2022/10/24 14:48:41;;;;;;;2.80;1.48;;;;;;;20.08;72.05;99916.06;5113683;28;20039;-62
2022/10/24 14:51:25;;;;;;;4.07;2.00;;;;;;;19.97;73.39;99913.19;5113222;28;20042;-62
2022/10/24 14:53:51;;;;;;;2.70;1.30;;;;;;;19.92;72.70;99913.09;5113802;28;20035;-64
2022/10/24 14:56:25;;;;;;;1.88;1.27;;;;;;;19.89;73.86;99913.59;5113569;28;20131;-63
2022/10/24 14:58:53;;;;;;;3.85;1.52;;;;;;;19.83;74.06;99911.03;5113550;28;20555;-64
2022/10/24 15:01:21;;;;;;;1.95;1.27;;;;;;;19.74;73.40;99908.69;5113134;28;20545;-62
2022/10/24 15:03:53;;;;;;;2.00;1.20;;;;;;;19.71;73.54;99906.50;5113633;28;20396;-64
2022/10/24 15:06:27;;;;;;;3.75;1.50;;;;;;;19.66;74.00;99909.09;5112559;28;20165;-63
2022/10/24 15:09:21;;;;;;;2.60;1.50;;;;;;;19.62;75.40;99915.22;5113238;28;20031;-64
2022/10/24 15:12:01;;;;;;;4.07;1.70;;;;;;;19.52;75.50;99913.94;5112652;28;20047;-64
2022/10/24 15:14:38;;;;;;;2.28;1.27;;;;;;;19.44;75.70;99924.31;5113122;27;20031;-64
2022/10/24 15:17:26;;;;;;;5.32;2.15;;;;;;;19.42;76.16;99929.91;5113044;28;20512;-64
2022/10/24 15:19:59;;;;;;;4.22;1.77;;;;;;;19.36;76.44;99917.38;5112968;28;20104;-64
2022/10/24 15:22:36;;;;;;;2.13;1.23;;;;;;;19.36;75.52;99916.53;5112881;28;20401;-64
2022/10/24 15:25:06;;;;;;;3.25;1.80;;;;;;;19.34;75.60;99919.50;5113032;28;20118;-62
2022/10/24 15:27:40;;;;;;;2.65;1.70;;;;;;;19.26;76.41;99927.97;5112970;28;20096;-64
2022/10/24 15:30:13;;;;;;;3.35;1.50;;;;;;;19.24;76.20;99922.81;5112829;28;20500;-63
2022/10/24 15:32:39;;;;;;;2.90;1.83;;;;;;;19.15;76.83;99921.53;5112767;28;20760;-64
2022/10/24 15:35:05;;;;;;;3.15;1.70;;;;;;;19.08;77.61;99923.53;5112902;28;20396;-64
2022/10/24 15:37:30;;;;;;;2.58;1.52;;;;;;;19.06;78.56;99922.13;5112716;28;20043;-62
2022/10/24 15:40:01;;;;;;;4.78;1.80;;;;;;;19.02;77.91;99920.94;5112707;28;20043;-63
2022/10/24 15:42:27;;;;;;;4.40;1.75;;;;;;;18.92;78.61;99916.16;5112580;28;20030;-64
2022/10/24 15:44:52;;;;;;;3.33;1.80;;;;;;;18.92;79.41;99921.56;5112668;28;20110;-64
2022/10/24 15:47:22;;;;;;;3.83;2.00;;;;;;;18.88;79.30;99918.50;5112600;28;20417;-64
2022/10/24 15:49:48;;;;;;;2.33;1.42;;;;;;;18.83;79.88;99915.69;5112879;28;20035;-64
2022/10/24 15:52:15;;;;;;;3.97;1.60;;;;;;;18.77;81.02;99916.63;5112153;28;20043;-64
2022/10/24 15:54:41;;;;;;;3.70;2.10;;;;;;;18.70;80.88;99919.44;5112619;28;20096;-62
2022/10/24 15:57:10;;;;;;;1.83;1.40;;;;;;;18.69;81.25;99916.97;5112456;28;20484;-64
2022/10/24 15:59:36;;;;;;;1.67;1.15;;;;;;;18.63;81.47;99916.00;5112463;28;20049;-63
2022/10/24 16:02:02;;;;;;;3.38;1.58;;;;;;;18.57;82.16;99924.19;5112148;28;20447;-62
2022/10/24 16:04:28;;;;;;;2.45;1.48;;;;;;;18.52;82.12;99933.00;5112285;28;20526;-63
2022/10/24 16:06:53;;;;;;;2.33;1.95;;;;;;;18.48;82.92;99936.41;5112243;28;20067;-61
2022/10/24 16:09:22;;;;;;;2.67;1.52;;;;;;;18.41;83.21;99931.13;5112334;28;20071;-63
2022/10/24 16:11:47;;;;;;;4.50;1.90;;;;;;;18.33;83.46;99943.06;5111844;27;20043;-62